createdAt,value
2023-05-19T00:00:19.477Z,87.84
2023-05-19T00:01:19.454Z,87.84
2023-05-19T00:02:19.515Z,88.04
2023-05-19T00:03:19.535Z,88.14
2023-05-19T00:04:19.432Z,88.24
2023-05-19T00:05:19.422Z,88.24
2023-05-19T00:06:19.439Z,87.94
2023-05-19T00:07:19.414Z,87.84
2023-05-19T00:08:19.375Z,87.87
2023-05-19T00:09:19.356Z,87.77
2023-05-19T00:10:19.353Z,87.87
2023-05-19T00:11:19.359Z,88.49
2023-05-19T00:12:19.372Z,88.70
2023-05-19T00:13:19.331Z,88.90
2023-05-19T00:14:19.318Z,89.42
2023-05-19T00:15:19.333Z,89.94
2023-05-19T00:16:19.336Z,90.34
2023-05-19T00:17:19.285Z,90.14
2023-05-19T00:18:19.269Z,89.42
2023-05-19T00:19:19.273Z,89.05
2023-05-19T00:20:19.259Z,89.05
2023-05-19T00:21:19.245Z,89.36
2023-05-19T00:22:19.310Z,89.77
2023-05-19T00:23:19.209Z,90.08
2023-05-19T00:24:19.202Z,90.39
2023-05-19T00:25:19.210Z,90.59
2023-05-19T00:26:19.173Z,90.59
2023-05-19T00:27:19.192Z,90.53
2023-05-19T00:28:19.153Z,90.64
2023-05-19T00:29:19.182Z,91.05
2023-05-19T00:30:19.152Z,91.46
2023-05-19T00:31:19.190Z,91.36
2023-05-19T00:32:19.127Z,91.15
2023-05-19T00:33:19.103Z,91.15
2023-05-19T00:34:19.093Z,91.15
2023-05-19T00:35:19.093Z,91.36
2023-05-19T00:36:19.085Z,91.77
2023-05-19T00:37:19.064Z,91.66
2023-05-19T00:38:19.057Z,91.56
2023-05-19T00:39:19.057Z,91.66
2023-05-19T00:40:19.047Z,91.56
2023-05-19T00:41:19.025Z,91.36
2023-05-19T00:42:19.011Z,90.99
2023-05-19T00:43:19.026Z,90.88
2023-05-19T00:44:19.015Z,90.99
2023-05-19T00:45:18.962Z,91.40
2023-05-19T00:46:18.985Z,91.91
2023-05-19T00:47:18.940Z,91.91
2023-05-19T00:48:18.930Z,91.50
2023-05-19T00:49:18.935Z,91.19
2023-05-19T00:50:18.916Z,91.40
2023-05-19T00:51:18.906Z,91.64
2023-05-19T00:52:18.896Z,91.85
2023-05-19T00:53:18.913Z,91.96
2023-05-19T00:54:18.858Z,91.75
2023-05-19T00:55:18.855Z,91.96
2023-05-19T00:56:18.855Z,92.16
2023-05-19T00:57:18.834Z,92.57
2023-05-19T00:58:18.848Z,92.57
2023-05-19T00:59:18.810Z,92.47
2023-05-19T01:00:18.813Z,92.68
2023-05-19T01:01:18.895Z,92.88
2023-05-19T01:02:18.805Z,92.99
2023-05-19T01:03:18.878Z,93.09
2023-05-19T01:04:18.753Z,93.19
2023-05-19T01:05:18.750Z,93.54
2023-05-19T01:06:18.743Z,93.65
2023-05-19T01:07:18.742Z,93.44
2023-05-19T01:08:18.722Z,93.03
2023-05-19T01:09:18.702Z,92.82
2023-05-19T01:10:18.709Z,92.93
2023-05-19T01:11:18.679Z,93.03
2023-05-19T01:12:18.688Z,93.13
2023-05-19T01:13:18.663Z,92.93
2023-05-19T01:14:18.671Z,92.93
2023-05-19T01:15:18.645Z,93.13
2023-05-19T01:16:18.715Z,93.13
2023-05-19T01:17:18.632Z,93.34
2023-05-19T01:18:18.642Z,93.13
2023-05-19T01:19:18.710Z,93.03
2023-05-19T01:20:18.606Z,93.13
2023-05-19T01:21:18.580Z,93.13
2023-05-19T01:22:18.587Z,92.72
2023-05-19T01:23:18.587Z,92.35
2023-05-19T01:24:18.546Z,92.35
2023-05-19T01:25:18.541Z,92.55
2023-05-19T01:26:18.546Z,92.82
2023-05-19T01:27:18.520Z,93.03
2023-05-19T01:28:18.508Z,93.38
2023-05-19T01:29:18.495Z,93.28
2023-05-19T01:30:18.489Z,93.18
2023-05-19T01:31:18.518Z,92.86
2023-05-19T01:32:18.467Z,93.07
2023-05-19T01:33:18.442Z,93.18
2023-05-19T01:34:18.441Z,93.49
2023-05-19T01:35:18.477Z,93.79
2023-05-19T01:36:18.430Z,93.79
2023-05-19T01:37:18.416Z,94.10
2023-05-19T01:38:18.402Z,94.31
2023-05-19T01:39:18.385Z,94.00
2023-05-19T01:40:18.387Z,94.10
2023-05-19T01:41:18.369Z,94.31
2023-05-19T01:42:18.357Z,94.62
2023-05-19T01:43:18.335Z,94.42
2023-05-19T01:44:18.348Z,94.21
2023-05-19T01:45:18.325Z,93.90
2023-05-19T01:46:18.366Z,93.79
2023-05-19T01:47:18.304Z,94.10
2023-05-19T01:48:18.315Z,94.31
2023-05-19T01:49:18.294Z,94.72
2023-05-19T01:50:18.279Z,94.82
2023-05-19T01:51:18.265Z,94.72
2023-05-19T01:52:18.259Z,94.56
2023-05-19T01:53:18.268Z,94.67
2023-05-19T01:54:18.242Z,94.77
2023-05-19T01:55:18.236Z,94.82
2023-05-19T01:56:18.206Z,94.87
2023-05-19T01:57:18.197Z,94.56
2023-05-19T01:58:18.186Z,94.56
2023-05-19T01:59:18.187Z,94.62
2023-05-19T02:00:19.311Z,94.82
2023-05-19T02:01:18.188Z,94.42
2023-05-19T02:02:18.150Z,94.21
2023-05-19T02:03:18.145Z,94.42
2023-05-19T02:04:18.196Z,94.42
2023-05-19T02:05:18.110Z,94.42
2023-05-19T02:06:18.101Z,94.10
2023-05-19T02:07:18.081Z,94.00
2023-05-19T02:08:18.103Z,94.21
2023-05-19T02:09:18.069Z,94.42
2023-05-19T02:10:18.058Z,94.31
2023-05-19T02:11:18.058Z,94.42
2023-05-19T02:12:18.044Z,94.82
2023-05-19T02:13:18.042Z,94.93
2023-05-19T02:14:18.018Z,95.34
2023-05-19T02:15:18.043Z,95.34
2023-05-19T02:16:18.075Z,95.07
2023-05-19T02:17:17.990Z,94.87
2023-05-19T02:18:17.988Z,94.67
2023-05-19T02:19:18.010Z,94.56
2023-05-19T02:20:17.946Z,94.77
2023-05-19T02:21:17.944Z,94.97
2023-05-19T02:22:17.947Z,95.18
2023-05-19T02:23:17.913Z,95.39
2023-05-19T02:24:17.912Z,95.07
2023-05-19T02:25:17.908Z,94.77
2023-05-19T02:26:17.906Z,94.77
2023-05-19T02:27:17.866Z,94.97
2023-05-19T02:28:17.880Z,94.97
2023-05-19T02:29:17.844Z,95.28
2023-05-19T02:30:17.840Z,95.28
2023-05-19T02:31:17.854Z,95.28
2023-05-19T02:32:17.890Z,95.49
2023-05-19T02:33:17.799Z,95.28
2023-05-19T02:34:17.794Z,95.28
2023-05-19T02:35:17.789Z,95.49
2023-05-19T02:36:17.780Z,95.59
2023-05-19T02:37:17.781Z,95.70
2023-05-19T02:38:17.757Z,95.70
2023-05-19T02:39:17.740Z,95.59
2023-05-19T02:40:17.769Z,95.80
2023-05-19T02:41:17.729Z,95.70
2023-05-19T02:42:17.718Z,95.53
2023-05-19T02:43:17.704Z,95.74
2023-05-19T02:44:17.698Z,95.53
2023-05-19T02:45:17.683Z,95.43
2023-05-19T02:46:17.713Z,95.39
2023-05-19T02:47:17.663Z,95.49
2023-05-19T02:48:17.643Z,95.59
2023-05-19T02:49:17.634Z,96.21
2023-05-19T02:50:17.650Z,96.52
2023-05-19T02:51:17.606Z,96.52
2023-05-19T02:52:17.618Z,96.94
2023-05-19T02:53:17.594Z,97.25
2023-05-19T02:54:17.594Z,97.14
2023-05-19T02:55:17.568Z,97.25
2023-05-19T02:56:17.575Z,97.25
2023-05-19T02:57:17.540Z,96.94
2023-05-19T02:58:17.543Z,96.94
2023-05-19T02:59:17.536Z,96.69
2023-05-19T03:00:17.512Z,96.42
2023-05-19T03:01:17.536Z,95.90
2023-05-19T03:02:17.505Z,95.76
2023-05-19T03:03:17.804Z,95.80
2023-05-19T03:04:17.481Z,95.90
2023-05-19T03:05:17.460Z,95.59
2023-05-19T03:06:17.447Z,95.39
2023-05-19T03:07:17.442Z,95.07
2023-05-19T03:08:17.438Z,94.77
2023-05-19T03:09:17.415Z,94.67
2023-05-19T03:10:17.412Z,94.56
2023-05-19T03:11:17.396Z,94.77
2023-05-19T03:12:17.384Z,94.77
2023-05-19T03:13:17.385Z,94.67
2023-05-19T03:14:17.368Z,94.56
2023-05-19T03:15:17.368Z,94.56
2023-05-19T03:16:17.396Z,94.56
2023-05-19T03:17:17.375Z,94.56
2023-05-19T03:18:17.372Z,94.56
2023-05-19T03:19:17.460Z,94.15
2023-05-19T03:20:17.306Z,93.94
2023-05-19T03:21:17.285Z,93.94
2023-05-19T03:22:17.298Z,93.84
2023-05-19T03:23:17.265Z,93.63
2023-05-19T03:24:17.260Z,93.63
2023-05-19T03:25:17.246Z,93.43
2023-05-19T03:26:17.258Z,93.22
2023-05-19T03:27:17.232Z,93.12
2023-05-19T03:28:17.249Z,93.22
2023-05-19T03:29:17.229Z,93.68
2023-05-19T03:30:17.202Z,93.68
2023-05-19T03:31:17.193Z,93.68
2023-05-19T03:32:17.215Z,93.88
2023-05-19T03:33:17.318Z,94.09
2023-05-19T03:34:17.169Z,94.09
2023-05-19T03:35:17.141Z,94.29
2023-05-19T03:36:17.141Z,94.23
2023-05-19T03:37:17.125Z,94.23
2023-05-19T03:38:17.120Z,94.54
2023-05-19T03:39:17.092Z,94.44
2023-05-19T03:40:17.098Z,94.54
2023-05-19T03:41:17.091Z,94.54
2023-05-19T03:42:17.082Z,94.48
2023-05-19T03:43:17.051Z,94.28
2023-05-19T03:44:17.072Z,94.07
2023-05-19T03:45:17.293Z,93.97
2023-05-19T03:46:17.078Z,93.97
2023-05-19T03:47:17.023Z,93.97
2023-05-19T03:48:19.047Z,94.48
2023-05-19T03:49:17.000Z,94.79
2023-05-19T03:50:17.044Z,95.10
2023-05-19T03:51:16.970Z,95.62
2023-05-19T03:52:16.973Z,95.62
2023-05-19T03:53:16.949Z,95.62
2023-05-19T03:54:16.948Z,95.67
2023-05-19T03:55:16.942Z,95.67
2023-05-19T03:56:16.933Z,95.87
2023-05-19T03:57:16.912Z,95.87
2023-05-19T03:58:16.904Z,95.98
2023-05-19T03:59:16.896Z,95.87
2023-05-19T04:00:16.889Z,95.87
2023-05-19T04:01:16.865Z,95.87
2023-05-19T04:02:17.068Z,96.08
2023-05-19T04:03:16.982Z,96.29
2023-05-19T04:04:16.913Z,96.29
2023-05-19T04:05:16.820Z,96.49
2023-05-19T04:06:16.808Z,96.70
2023-05-19T04:07:16.801Z,96.91
2023-05-19T04:08:16.792Z,97.01
2023-05-19T04:09:16.788Z,97.22
2023-05-19T04:10:16.776Z,97.42
2023-05-19T04:11:16.784Z,97.42
2023-05-19T04:12:16.767Z,97.53
2023-05-19T04:13:16.751Z,97.53
2023-05-19T04:14:16.757Z,97.42
2023-05-19T04:15:16.712Z,97.42
2023-05-19T04:16:16.789Z,97.53
2023-05-19T04:17:16.689Z,97.53
2023-05-19T04:18:16.749Z,97.42
2023-05-19T04:19:16.743Z,97.32
2023-05-19T04:20:16.661Z,97.22
2023-05-19T04:21:16.654Z,96.91
2023-05-19T04:22:16.644Z,96.70
2023-05-19T04:23:16.633Z,96.91
2023-05-19T04:24:16.618Z,97.28
2023-05-19T04:25:16.607Z,97.59
2023-05-19T04:26:16.653Z,97.79
2023-05-19T04:27:16.589Z,97.75
2023-05-19T04:28:16.603Z,97.59
2023-05-19T04:29:16.564Z,97.49
2023-05-19T04:30:18.448Z,97.28
2023-05-19T04:31:16.556Z,97.28
2023-05-19T04:32:16.540Z,97.17
2023-05-19T04:33:16.515Z,96.97
2023-05-19T04:34:16.513Z,96.72
2023-05-19T04:35:16.503Z,96.72
2023-05-19T04:36:16.490Z,96.61
2023-05-19T04:37:16.499Z,96.61
2023-05-19T04:38:16.468Z,96.61
2023-05-19T04:39:16.460Z,97.13
2023-05-19T04:40:16.463Z,97.23
2023-05-19T04:41:16.508Z,97.19
2023-05-19T04:42:16.466Z,97.19
2023-05-19T04:43:16.411Z,97.19
2023-05-19T04:44:16.406Z,97.39
2023-05-19T04:45:16.388Z,97.29
2023-05-19T04:46:16.433Z,97.50
2023-05-19T04:47:16.371Z,97.50
2023-05-19T04:48:16.364Z,97.50
2023-05-19T04:49:16.345Z,97.55
2023-05-19T04:50:16.409Z,97.97
2023-05-19T04:51:16.335Z,98.28
2023-05-19T04:52:16.332Z,98.28
2023-05-19T04:53:16.374Z,98.28
2023-05-19T04:54:16.295Z,98.18
2023-05-19T04:55:16.298Z,98.28
2023-05-19T04:56:16.291Z,98.28
2023-05-19T04:57:16.269Z,98.23
2023-05-19T04:58:16.285Z,98.23
2023-05-19T04:59:16.237Z,98.23
2023-05-19T05:00:16.249Z,98.23
2023-05-19T05:01:16.363Z,98.33
2023-05-19T05:02:16.349Z,98.44
2023-05-19T05:03:16.325Z,98.39
2023-05-19T05:04:16.209Z,98.60
2023-05-19T05:05:16.181Z,98.80
2023-05-19T05:06:16.157Z,98.91
2023-05-19T05:07:16.162Z,98.60
2023-05-19T05:08:16.205Z,98.50
2023-05-19T05:09:16.155Z,98.24
2023-05-19T05:10:16.129Z,98.14
2023-05-19T05:11:16.112Z,98.03
2023-05-19T05:12:16.099Z,97.94
2023-05-19T05:13:16.088Z,98.14
2023-05-19T05:14:16.088Z,97.73
2023-05-19T05:15:16.071Z,97.27
2023-05-19T05:16:16.083Z,96.96
2023-05-19T05:17:16.049Z,96.45
2023-05-19T05:18:16.061Z,95.99
2023-05-19T05:19:16.109Z,95.89
2023-05-19T05:20:16.116Z,95.89
2023-05-19T05:21:15.990Z,95.58
2023-05-19T05:22:16.120Z,95.12
2023-05-19T05:23:15.982Z,94.71
2023-05-19T05:24:15.974Z,94.51
2023-05-19T05:25:16.053Z,94.51
2023-05-19T05:26:15.946Z,94.05
2023-05-19T05:27:15.949Z,93.64
2023-05-19T05:28:15.953Z,93.84
2023-05-19T05:29:15.932Z,93.74
2023-05-19T05:30:15.913Z,93.74
2023-05-19T05:31:15.888Z,93.43
2023-05-19T05:32:15.934Z,93.18
2023-05-19T05:33:16.086Z,92.87
2023-05-19T05:34:15.860Z,92.87
2023-05-19T05:35:15.849Z,92.57
2023-05-19T05:36:15.852Z,92.57
2023-05-19T05:37:15.853Z,92.63
2023-05-19T05:38:16.898Z,92.63
2023-05-19T05:39:15.806Z,92.73
2023-05-19T05:40:15.806Z,93.24
2023-05-19T05:41:15.871Z,92.42
2023-05-19T05:42:15.843Z,92.38
2023-05-19T05:43:15.776Z,92.07
2023-05-19T05:44:15.761Z,92.17
2023-05-19T05:45:15.730Z,92.48
2023-05-19T05:46:15.819Z,91.41
2023-05-19T05:47:15.732Z,91.20
2023-05-19T05:48:16.036Z,91.20
2023-05-19T05:49:15.702Z,91.20
2023-05-19T05:50:15.691Z,91.31
2023-05-19T05:51:15.694Z,90.95
2023-05-19T05:52:15.679Z,91.06
2023-05-19T05:53:15.660Z,91.06
2023-05-19T05:54:15.673Z,90.95
2023-05-19T05:55:15.641Z,90.40
2023-05-19T05:56:15.674Z,90.50
2023-05-19T05:57:15.668Z,90.67
2023-05-19T05:58:15.598Z,90.77
2023-05-19T05:59:15.662Z,90.87
2023-05-19T06:00:15.771Z,88.84
2023-05-19T06:01:15.594Z,87.16
2023-05-19T06:02:15.591Z,84.80
2023-05-19T06:03:15.699Z,84.46
2023-05-19T06:04:15.617Z,82.71
2023-05-19T06:05:15.700Z,82.17
2023-05-19T06:06:15.579Z,81.96
2023-05-19T06:07:15.546Z,81.41
2023-05-19T06:08:15.518Z,81.10
2023-05-19T06:09:15.480Z,81.48
2023-05-19T06:10:15.666Z,80.25
2023-05-19T06:11:15.508Z,80.32
2023-05-19T06:12:15.574Z,78.82
2023-05-19T06:13:15.508Z,80.25
2023-05-19T06:14:15.602Z,79.84
2023-05-19T06:15:15.618Z,78.99
2023-05-19T06:16:15.505Z,76.60
2023-05-19T06:17:15.411Z,77.18
2023-05-19T06:18:15.503Z,75.04
2023-05-19T06:19:15.667Z,75.51
2023-05-19T06:20:15.457Z,76.02
2023-05-19T06:21:15.372Z,75.82
2023-05-19T06:22:15.348Z,76.90
2023-05-19T06:23:15.442Z,74.76
2023-05-19T06:24:15.622Z,74.35
2023-05-19T06:25:15.338Z,72.82
2023-05-19T06:26:15.403Z,73.98
2023-05-19T06:27:15.328Z,73.60
2023-05-19T06:28:15.400Z,74.18
2023-05-19T06:29:15.362Z,73.71
2023-05-19T06:30:15.351Z,73.40
2023-05-19T06:31:15.567Z,72.45
2023-05-19T06:32:15.446Z,70.61
2023-05-19T06:33:15.298Z,69.76
2023-05-19T06:34:15.380Z,69.97
2023-05-19T06:35:15.356Z,69.36
2023-05-19T06:36:15.207Z,69.43
2023-05-19T06:37:15.203Z,69.32
2023-05-19T06:38:16.430Z,70.04
2023-05-19T06:39:15.265Z,69.15
2023-05-19T06:40:15.586Z,70.58
2023-05-19T06:41:15.385Z,70.55
2023-05-19T06:42:15.158Z,71.33
2023-05-19T06:43:15.120Z,70.10
2023-05-19T06:44:15.108Z,69.06
2023-05-19T06:45:15.097Z,67.02
2023-05-19T06:46:15.166Z,66.41
2023-05-19T06:47:15.122Z,67.02
2023-05-19T06:48:15.122Z,67.33
2023-05-19T06:49:15.051Z,68.04
2023-05-19T06:50:15.043Z,66.28
2023-05-19T06:51:15.023Z,67.30
2023-05-19T06:52:15.028Z,65.97
2023-05-19T06:53:15.042Z,65.06
2023-05-19T06:54:15.002Z,65.47
2023-05-19T06:55:14.988Z,65.74
2023-05-19T06:56:15.005Z,65.54
2023-05-19T06:57:14.970Z,66.32
2023-05-19T06:58:14.986Z,64.29
2023-05-19T06:59:14.938Z,64.15
2023-05-19T07:00:17.964Z,62.94
2023-05-19T07:01:14.984Z,63.75
2023-05-19T07:02:15.085Z,63.95
2023-05-19T07:03:14.931Z,64.06
2023-05-19T07:04:14.969Z,63.45
2023-05-19T07:05:14.892Z,63.85
2023-05-19T07:06:14.885Z,64.06
2023-05-19T07:07:14.861Z,64.73
2023-05-19T07:08:14.850Z,62.02
2023-05-19T07:09:14.840Z,64.09
2023-05-19T07:10:14.863Z,64.06
2023-05-19T07:11:14.839Z,62.30
2023-05-19T07:12:14.804Z,62.81
2023-05-19T07:13:14.798Z,63.21
2023-05-19T07:14:14.792Z,62.88
2023-05-19T07:15:14.785Z,62.65
2023-05-19T07:16:14.822Z,62.54
2023-05-19T07:17:14.750Z,62.95
2023-05-19T07:18:14.749Z,64.24
2023-05-19T07:19:14.750Z,62.72
2023-05-19T07:20:14.722Z,62.59
2023-05-19T07:21:14.704Z,61.98
2023-05-19T07:22:14.697Z,62.69
2023-05-19T07:23:17.145Z,60.63
2023-05-19T07:24:14.690Z,60.53
2023-05-19T07:25:14.665Z,60.74
2023-05-19T07:26:14.690Z,61.44
2023-05-19T07:27:14.644Z,61.55
2023-05-19T07:28:14.657Z,59.72
2023-05-19T07:29:14.625Z,58.99
2023-05-19T07:30:14.634Z,59.29
2023-05-19T07:31:14.618Z,57.95
2023-05-19T07:32:14.658Z,58.76
2023-05-19T07:33:14.625Z,58.99
2023-05-19T07:34:14.572Z,59.09
2023-05-19T07:35:14.602Z,58.99
2023-05-19T07:36:14.577Z,58.78
2023-05-19T07:37:14.533Z,59.59
2023-05-19T07:38:14.529Z,60.30
2023-05-19T07:39:14.551Z,57.95
2023-05-19T07:40:14.520Z,58.02
2023-05-19T07:41:14.543Z,58.09
2023-05-19T07:42:14.495Z,58.60
2023-05-19T07:43:14.489Z,58.80
2023-05-19T07:44:14.485Z,58.20
2023-05-19T07:45:14.456Z,58.80
2023-05-19T07:46:14.473Z,58.58
2023-05-19T07:47:14.431Z,57.26
2023-05-19T07:48:14.490Z,56.25
2023-05-19T07:49:14.423Z,55.67
2023-05-19T07:50:14.417Z,55.36
2023-05-19T07:51:14.493Z,55.85
2023-05-19T07:52:14.609Z,55.57
2023-05-19T07:53:14.586Z,56.45
2023-05-19T07:54:14.390Z,56.56
2023-05-19T07:55:14.452Z,56.15
2023-05-19T07:56:14.448Z,57.14
2023-05-19T07:57:14.410Z,57.34
2023-05-19T07:58:14.529Z,56.32
2023-05-19T07:59:14.364Z,54.31
2023-05-19T08:00:14.459Z,54.61
2023-05-19T08:01:14.489Z,55.01
2023-05-19T08:02:14.464Z,55.79
2023-05-19T08:03:14.798Z,53.38
2023-05-19T08:04:14.602Z,53.40
2023-05-19T08:05:14.356Z,55.09
2023-05-19T08:06:14.333Z,54.89
2023-05-19T08:07:14.493Z,54.18
2023-05-19T08:08:14.407Z,55.19
2023-05-19T08:09:14.299Z,55.29
2023-05-19T08:10:14.295Z,56.50
2023-05-19T08:11:14.209Z,55.39
2023-05-19T08:12:14.305Z,55.36
2023-05-19T08:13:14.306Z,54.56
2023-05-19T08:14:14.243Z,54.16
2023-05-19T08:15:14.319Z,53.75
2023-05-19T08:16:14.313Z,53.45
2023-05-19T08:17:14.150Z,53.45
2023-05-19T08:18:14.331Z,53.45
2023-05-19T08:19:14.182Z,55.24
2023-05-19T08:20:15.013Z,54.13
2023-05-19T08:21:14.181Z,51.71
2023-05-19T08:22:14.104Z,52.92
2023-05-19T08:23:14.043Z,52.62
2023-05-19T08:24:14.070Z,54.23
2023-05-19T08:25:14.030Z,51.59
2023-05-19T08:26:14.050Z,52.11
2023-05-19T08:27:14.016Z,53.63
2023-05-19T08:28:14.541Z,53.52
2023-05-19T08:29:14.038Z,53.75
2023-05-19T08:30:15.491Z,53.12
2023-05-19T08:31:14.136Z,54.43
2023-05-19T08:32:13.963Z,53.12
2023-05-19T08:33:14.011Z,55.14
2023-05-19T08:34:13.986Z,54.21
2023-05-19T08:35:13.968Z,54.08
2023-05-19T08:36:13.953Z,53.50
2023-05-19T08:37:13.926Z,56.09
2023-05-19T08:38:13.898Z,52.44
2023-05-19T08:39:13.882Z,53.25
2023-05-19T08:40:14.196Z,51.84
2023-05-19T08:41:13.859Z,51.54
2023-05-19T08:42:13.854Z,53.25
2023-05-19T08:43:13.847Z,52.11
2023-05-19T08:44:13.956Z,50.98
2023-05-19T08:45:13.836Z,50.48
2023-05-19T08:46:13.915Z,51.56
2023-05-19T08:47:13.826Z,52.87
2023-05-19T08:48:13.854Z,52.59
2023-05-19T08:49:13.812Z,50.38
2023-05-19T08:50:13.778Z,51.01
2023-05-19T08:51:13.760Z,50.40
2023-05-19T08:52:13.786Z,51.68
2023-05-19T08:53:28.893Z,50.28
2023-05-19T08:54:14.759Z,51.09
2023-05-19T08:55:13.726Z,51.01
2023-05-19T08:56:13.717Z,51.21
2023-05-19T08:57:13.701Z,52.01
2023-05-19T08:58:13.711Z,52.51
2023-05-19T08:59:13.685Z,51.93
2023-05-19T09:00:13.705Z,52.54
2023-05-19T09:01:13.763Z,52.11
2023-05-19T09:02:13.672Z,50.71
2023-05-19T09:03:18.448Z,49.90
2023-05-19T09:04:14.780Z,50.10
2023-05-19T09:05:13.653Z,49.77
2023-05-19T09:06:13.635Z,49.57
2023-05-19T09:07:13.621Z,50.98
2023-05-19T09:08:13.595Z,50.02
2023-05-19T09:09:13.585Z,53.55
2023-05-19T09:10:13.628Z,53.22
2023-05-19T09:11:13.564Z,52.62
2023-05-19T09:12:13.684Z,52.22
2023-05-19T09:13:13.536Z,53.12
2023-05-19T09:14:14.290Z,52.92
2023-05-19T09:15:13.515Z,52.72
2023-05-19T09:16:13.557Z,53.32
2023-05-19T09:17:13.562Z,52.72
2023-05-19T09:18:13.497Z,52.72
2023-05-19T09:19:13.527Z,54.30
2023-05-19T09:20:13.488Z,53.40
2023-05-19T09:21:13.459Z,52.57
2023-05-19T09:25:16.774Z,55.08
2023-05-19T09:26:16.787Z,52.87
2023-05-19T09:27:16.744Z,51.66
2023-05-19T09:28:16.731Z,50.89
2023-05-19T09:29:16.715Z,50.18
2023-05-19T09:30:16.733Z,51.86
2023-05-19T09:31:16.707Z,51.34
2023-05-19T09:32:16.766Z,52.34
2023-05-19T09:33:16.719Z,51.64
2023-05-19T09:34:16.708Z,51.46
2023-05-19T09:35:16.677Z,50.78
2023-05-19T09:36:16.679Z,50.48
2023-05-19T09:37:16.643Z,52.29
2023-05-19T09:38:16.631Z,51.59
2023-05-19T09:39:16.622Z,51.61
2023-05-19T09:40:16.622Z,51.18
2023-05-19T09:41:16.598Z,51.79
2023-05-19T09:42:16.588Z,51.06
2023-05-19T09:43:16.580Z,50.08
2023-05-19T09:44:16.593Z,52.87
2023-05-19T09:45:16.587Z,51.66
2023-05-19T09:46:16.608Z,52.69
2023-05-19T09:47:16.534Z,51.79
2023-05-19T09:48:16.537Z,52.39
2023-05-19T09:49:16.760Z,51.31
2023-05-19T09:50:16.510Z,51.41
2023-05-19T09:51:16.518Z,51.91
2023-05-19T09:52:16.547Z,53.00
2023-05-19T09:53:16.495Z,53.07
2023-05-19T09:54:16.476Z,51.14
2023-05-19T09:55:16.469Z,53.05
2023-05-19T09:56:16.450Z,51.64
2023-05-19T09:57:16.430Z,50.26
2023-05-19T09:58:16.516Z,50.26
2023-05-19T09:59:16.415Z,51.74
2023-05-19T10:00:16.403Z,49.93
2023-05-19T10:01:16.451Z,51.81
2023-05-19T10:02:16.507Z,49.60
2023-05-19T10:03:16.529Z,50.59
2023-05-19T10:04:16.369Z,49.98
2023-05-19T10:05:16.477Z,49.98
2023-05-19T10:06:16.353Z,49.68
2023-05-19T10:07:16.345Z,48.28
2023-05-19T10:08:16.343Z,47.67
2023-05-19T10:09:16.315Z,50.18
2023-05-19T10:10:16.339Z,49.26
2023-05-19T10:11:16.297Z,49.76
2023-05-19T10:12:16.359Z,49.26
2023-05-19T10:13:16.287Z,50.24
2023-05-19T10:14:16.288Z,48.63
2023-05-19T10:15:16.260Z,47.65
2023-05-19T10:16:16.305Z,47.33
2023-05-19T10:17:16.250Z,48.63
2023-05-19T10:18:16.276Z,48.43
2023-05-19T10:19:16.274Z,48.35
2023-05-19T10:20:16.290Z,48.05
2023-05-19T10:21:16.198Z,50.26
2023-05-19T10:22:16.189Z,48.43
2023-05-19T10:23:16.175Z,48.23
2023-05-19T10:24:16.168Z,48.71
2023-05-19T10:25:16.164Z,48.43
2023-05-19T10:26:16.173Z,49.04
2023-05-19T10:27:16.147Z,48.73
2023-05-19T10:28:16.160Z,48.43
2023-05-19T10:29:16.120Z,46.45
2023-05-19T10:30:16.610Z,48.35
2023-05-19T10:31:16.119Z,47.96
2023-05-19T10:32:16.135Z,48.05
2023-05-19T10:33:16.171Z,49.13
2023-05-19T10:34:16.103Z,48.63
2023-05-19T10:35:16.103Z,51.01
2023-05-19T10:36:16.053Z,48.61
2023-05-19T10:37:16.036Z,49.39
2023-05-19T10:38:16.026Z,47.71
2023-05-19T10:39:16.014Z,47.31
2023-05-19T10:40:16.128Z,47.83
2023-05-19T10:41:16.005Z,48.73
2023-05-19T10:42:16.038Z,47.73
2023-05-19T10:43:16.007Z,46.67
2023-05-19T10:44:16.018Z,47.65
2023-05-19T10:45:15.968Z,46.55
2023-05-19T10:46:15.994Z,47.83
2023-05-19T10:47:16.023Z,47.33
2023-05-19T10:48:16.033Z,47.13
2023-05-19T10:49:15.948Z,46.62
2023-05-19T10:50:16.040Z,47.93
2023-05-19T10:51:15.899Z,48.63
2023-05-19T10:52:15.898Z,47.71
2023-05-19T10:53:15.905Z,46.20
2023-05-19T10:54:15.947Z,47.88
2023-05-19T10:55:15.869Z,46.30
2023-05-19T10:56:15.858Z,48.01
2023-05-19T10:57:15.855Z,48.08
2023-05-19T10:58:15.862Z,47.99
2023-05-19T10:59:15.827Z,47.08
2023-05-19T11:00:15.825Z,45.78
2023-05-19T11:01:15.907Z,48.16
2023-05-19T11:02:15.895Z,46.66
2023-05-19T11:03:15.937Z,47.26
2023-05-19T11:04:15.860Z,43.68
2023-05-19T11:05:15.789Z,47.41
2023-05-19T11:06:15.771Z,45.50
2023-05-19T11:07:15.751Z,45.42
2023-05-19T11:08:15.771Z,46.73
2023-05-19T11:09:15.762Z,47.65
2023-05-19T11:10:15.725Z,46.97
2023-05-19T11:11:15.715Z,47.52
2023-05-19T11:12:15.736Z,48.05
2023-05-19T11:13:15.692Z,48.14
2023-05-19T11:14:15.691Z,49.15
2023-05-19T11:15:15.724Z,48.07
2023-05-19T11:16:15.756Z,49.02
2023-05-19T11:17:15.682Z,49.91
2023-05-19T11:18:15.945Z,48.50
2023-05-19T11:19:15.637Z,48.58
2023-05-19T11:20:15.644Z,47.80
2023-05-19T11:21:15.656Z,49.78
2023-05-19T11:22:15.625Z,48.55
2023-05-19T11:23:15.650Z,48.05
2023-05-19T11:24:15.608Z,47.96
2023-05-19T11:25:15.575Z,46.93
2023-05-19T11:26:15.577Z,49.21
2023-05-19T11:27:15.554Z,48.21
2023-05-19T11:28:15.574Z,51.59
2023-05-19T11:29:15.530Z,53.64
2023-05-19T11:30:15.521Z,50.94
2023-05-19T11:31:15.520Z,48.44
2023-05-19T11:32:15.520Z,48.04
2023-05-19T11:33:15.516Z,48.44
2023-05-19T11:34:15.475Z,47.14
2023-05-19T11:35:15.481Z,47.64
2023-05-19T11:36:15.470Z,46.74
2023-05-19T11:37:15.451Z,47.06
2023-05-19T11:38:15.447Z,46.36
2023-05-19T11:39:15.441Z,45.58
2023-05-19T11:40:15.453Z,46.78
2023-05-19T11:41:15.428Z,46.38
2023-05-19T11:42:15.412Z,44.98
2023-05-19T11:43:15.400Z,45.58
2023-05-19T11:44:15.443Z,45.88
2023-05-19T11:45:15.420Z,45.48
2023-05-19T11:46:15.410Z,44.82
2023-05-19T11:47:15.353Z,45.95
2023-05-19T11:48:15.375Z,46.47
2023-05-19T11:49:15.339Z,48.28
2023-05-19T11:50:15.355Z,47.67
2023-05-19T11:51:15.321Z,50.68
2023-05-19T11:52:15.313Z,48.66
2023-05-19T11:53:15.301Z,47.07
2023-05-19T11:54:15.326Z,47.35
2023-05-19T11:55:15.325Z,44.52
2023-05-19T11:56:15.298Z,46.20
2023-05-19T11:57:15.254Z,45.20
2023-05-19T11:58:15.269Z,46.68
2023-05-19T11:59:15.276Z,47.66
2023-05-19T12:00:15.319Z,43.66
2023-05-19T12:01:15.210Z,43.85
2023-05-19T12:02:15.305Z,43.77
2023-05-19T12:03:15.417Z,43.88
2023-05-19T12:04:15.247Z,45.26
2023-05-19T12:05:15.356Z,43.48
2023-05-19T12:06:15.212Z,43.38
2023-05-19T12:07:15.158Z,43.55
2023-05-19T12:08:15.172Z,44.34
2023-05-19T12:09:15.153Z,44.62
2023-05-19T12:10:15.154Z,40.83
2023-05-19T12:11:15.107Z,41.93
2023-05-19T12:12:15.123Z,41.91
2023-05-19T12:13:15.113Z,42.41
2023-05-19T12:14:15.094Z,41.61
2023-05-19T12:15:15.159Z,42.21
2023-05-19T12:16:15.146Z,41.61
2023-05-19T12:17:15.090Z,39.29
2023-05-19T12:18:15.063Z,40.30
2023-05-19T12:19:15.065Z,40.89
2023-05-19T12:20:15.069Z,38.01
2023-05-19T12:21:15.026Z,42.19
2023-05-19T12:22:15.076Z,41.17
2023-05-19T12:23:15.064Z,43.87
2023-05-19T12:24:14.993Z,45.35
2023-05-19T12:25:15.068Z,39.24
2023-05-19T12:26:15.079Z,38.94
2023-05-19T12:27:14.976Z,40.23
2023-05-19T12:28:15.089Z,40.14
2023-05-19T12:29:15.157Z,38.94
2023-05-19T12:30:14.963Z,40.81
2023-05-19T12:31:14.928Z,38.24
2023-05-19T12:32:14.930Z,39.43
2023-05-19T12:33:14.967Z,40.25
2023-05-19T12:34:14.901Z,41.55
2023-05-19T12:35:14.890Z,38.68
2023-05-19T12:36:14.918Z,40.19
2023-05-19T12:37:14.880Z,40.63
2023-05-19T12:38:14.855Z,40.35
2023-05-19T12:39:14.847Z,39.57
2023-05-19T12:40:14.900Z,40.75
2023-05-19T12:41:14.837Z,41.55
2023-05-19T12:42:14.819Z,42.18
2023-05-19T12:43:14.858Z,42.16
2023-05-19T12:44:14.807Z,42.05
2023-05-19T12:45:14.799Z,40.13
2023-05-19T12:46:14.821Z,41.61
2023-05-19T12:47:14.778Z,41.21
2023-05-19T12:48:14.847Z,41.30
2023-05-19T12:49:14.767Z,41.49
2023-05-19T12:50:14.787Z,39.91
2023-05-19T12:51:14.753Z,40.61
2023-05-19T12:52:14.777Z,40.71
2023-05-19T12:53:14.780Z,40.73
2023-05-19T12:54:14.751Z,40.35
2023-05-19T12:55:14.776Z,40.15